Time;durP1;ratioP1;P1;durP2;ratioP2;P2;SDS_P1;SDS_P2;PMS_P1;PMS_P2;Temp;Humidity;BMP_temperature;BMP_pressure;BME280_temperature;BME280_humidity;BME280_pressure;Samples;Min_cycle;Max_cycle;Signal;HPM_P1;HPM_P2
2023/11/07 00:00:30;;;;;;;10.20;4.65;;;8.00;99.90;;;;;;4958286;29;20043;-92
2023/11/07 00:02:57;;;;;;;12.27;4.95;;;8.50;99.90;;;;;;4958943;29;20039;-92
2023/11/07 00:05:24;;;;;;;10.05;4.57;;;8.90;99.90;;;;;;4974254;29;20095;-92
2023/11/07 00:07:51;;;;;;;10.93;4.32;;;8.00;99.90;;;;;;4958286;29;20101;-92
2023/11/07 00:10:18;;;;;;;11.23;4.50;;;8.70;99.90;;;;;;4958192;29;20054;-92
2023/11/07 00:12:45;;;;;;;16.70;4.65;;;7.90;99.90;;;;;;4973707;28;20042;-91
2023/11/07 00:15:13;;;;;;;13.63;4.55;;;7.90;99.90;;;;;;4958389;29;20509;-92
2023/11/07 00:17:40;;;;;;;15.75;4.45;;;7.90;99.90;;;;;;4958046;29;20524;-92
2023/11/07 00:20:08;;;;;;;13.52;4.72;;;7.90;99.90;;;;;;4957848;29;20047;-91
2023/11/07 00:22:34;;;;;;;9.75;4.40;;;7.80;99.90;;;;;;4973202;28;20046;-91
2023/11/07 00:25:01;;;;;;;8.63;4.50;;;7.80;99.90;;;;;;4958235;29;20035;-92
2023/11/07 00:27:28;;;;;;;14.52;4.57;;;7.80;99.90;;;;;;4974331;29;20035;-92
2023/11/07 00:29:55;;;;;;;10.75;4.15;;;8.10;99.90;;;;;;4947696;29;20409;-91
2023/11/07 00:32:22;;;;;;;10.05;4.53;;;7.80;99.90;;;;;;4970513;29;20039;-91
2023/11/07 00:34:48;;;;;;;13.07;4.47;;;7.70;99.90;;;;;;4954091;29;20155;-91
2023/11/07 00:37:18;;;;;;;8.63;3.85;;;7.70;99.90;;;;;;4957718;29;20050;-91
2023/11/07 00:39:44;;;;;;;8.93;4.43;;;7.60;99.90;;;;;;4973932;29;20775;-91
2023/11/07 00:42:11;;;;;;;13.35;4.78;;;7.60;99.90;;;;;;4958240;29;20032;-91
2023/11/07 00:44:38;;;;;;;11.05;4.90;;;7.60;99.90;;;;;;4953369;29;20047;-91
2023/11/07 00:47:05;;;;;;;9.65;4.20;;;8.20;99.90;;;;;;4964932;29;20078;-90
2023/11/07 00:49:32;;;;;;;15.50;4.80;;;7.60;99.90;;;;;;4957490;29;20129;-92
2023/11/07 00:52:00;;;;;;;11.80;4.28;;;8.00;99.90;;;;;;4957966;29;20060;-91
2023/11/07 00:54:27;;;;;;;13.65;4.95;;;7.50;99.90;;;;;;4957202;29;20043;-91
2023/11/07 00:56:54;;;;;;;11.02;4.90;;;7.50;99.90;;;;;;4964684;29;20042;-91
2023/11/07 00:59:20;;;;;;;15.68;4.93;;;7.50;99.90;;;;;;4970661;29;20051;-92
2023/11/07 01:01:47;;;;;;;17.30;5.40;;;7.50;99.90;;;;;;4973479;29;20419;-91
2023/11/07 01:04:13;;;;;;;13.60;5.30;;;7.50;99.90;;;;;;4948368;29;20040;-91
2023/11/07 01:06:40;;;;;;;10.98;5.38;;;7.40;99.90;;;;;;4973061;29;20082;-90
2023/11/07 01:09:08;;;;;;;13.52;5.25;;;7.40;99.90;;;;;;4973509;29;20090;-91
2023/11/07 01:11:37;;;;;;;10.10;5.65;;;7.40;99.90;;;;;;4973401;29;20059;-92
2023/11/07 01:14:04;;;;;;;14.23;5.50;;;7.40;99.90;;;;;;4973451;29;20047;-91
2023/11/07 01:16:30;;;;;;;13.63;5.80;;;7.40;99.90;;;;;;4973711;29;20494;-91
2023/11/07 01:18:57;;;;;;;12.45;5.75;;;7.40;99.90;;;;;;4972774;29;20410;-92
2023/11/07 01:21:23;;;;;;;14.68;6.15;;;7.40;99.90;;;;;;4973450;29;20043;-92
2023/11/07 01:23:50;;;;;;;13.00;5.80;;;7.80;99.90;;;;;;4946469;29;20066;-92
2023/11/07 01:26:20;;;;;;;17.38;6.05;;;8.10;99.90;;;;;;4973116;29;20043;-90
2023/11/07 01:28:47;;;;;;;13.60;6.32;;;8.30;99.90;;;;;;4957860;29;20047;-90
2023/11/07 01:31:13;;;;;;;14.80;6.10;;;7.50;99.90;;;;;;4973393;29;20387;-91
2023/11/07 01:33:40;;;;;;;14.85;6.20;;;7.50;99.90;;;;;;4963684;29;20039;-91
2023/11/07 01:36:09;;;;;;;19.25;6.53;;;8.20;99.90;;;;;;4975026;29;20498;-89
2023/11/07 01:38:36;;;;;;;12.45;6.25;;;7.50;99.90;;;;;;4961382;29;20486;-92
2023/11/07 01:41:03;;;;;;;16.17;7.38;;;7.60;99.90;;;;;;4965420;29;20505;-91
2023/11/07 01:43:29;;;;;;;16.20;7.13;;;7.60;99.90;;;;;;4960934;29;20043;-92
2023/11/07 01:46:00;;;;;;;20.17;7.88;;;8.50;99.90;;;;;;4960804;29;20056;-90
2023/11/07 01:48:27;;;;;;;17.50;8.23;;;7.70;99.90;;;;;;4960627;29;20040;-91
2023/11/07 01:50:54;;;;;;;15.57;8.02;;;8.50;99.90;;;;;;4976423;29;20043;-90
2023/11/07 01:53:21;;;;;;;17.60;7.97;;;7.70;99.90;;;;;;4960798;29;20054;-91
2023/11/07 01:55:48;;;;;;;17.35;8.98;;;7.80;99.90;;;;;;4960912;29;20073;-92
2023/11/07 01:58:16;;;;;;;17.00;8.18;;;8.60;99.90;;;;;;4960729;29;20458;-91
2023/11/07 02:00:44;;;;;;;21.85;8.75;;;8.70;99.90;;;;;;4960250;29;20105;-90
2023/11/07 02:03:10;;;;;;;20.27;9.32;;;7.90;99.90;;;;;;4960068;29;20102;-91
2023/11/07 02:05:37;;;;;;;17.90;9.00;;;8.00;99.90;;;;;;4960969;29;20489;-92
2023/11/07 02:08:05;;;;;;;19.48;9.48;;;8.00;99.90;;;;;;4976531;29;20039;-90
2023/11/07 02:10:32;;;;;;;21.13;9.18;;;8.00;99.90;;;;;;4961222;28;20134;-91
2023/11/07 02:12:59;;;;;;;21.73;9.75;;;8.00;99.90;;;;;;4960278;29;20122;-91
2023/11/07 02:15:26;;;;;;;17.67;9.15;;;8.10;99.90;;;;;;4976091;29;20047;-92
2023/11/07 02:17:54;;;;;;;16.00;9.30;;;9.00;99.90;;;;;;4975932;29;20043;-90
2023/11/07 02:20:21;;;;;;;17.85;10.77;;;9.00;99.90;;;;;;4960328;29;20039;-91
2023/11/07 02:22:51;;;;;;;20.60;9.45;;;8.10;99.90;;;;;;4974074;29;20769;-91
2023/11/07 02:25:21;;;;;;;20.73;9.60;;;8.20;99.90;;;;;;4976120;29;20106;-92
2023/11/07 02:27:48;;;;;;;14.90;9.13;;;8.20;99.90;;;;;;4963031;29;20082;-91
2023/11/07 02:30:15;;;;;;;16.17;8.93;;;8.20;99.90;;;;;;4975703;29;20129;-89
2023/11/07 02:32:42;;;;;;;19.90;8.95;;;8.90;99.90;;;;;;4959690;29;20043;-91
2023/11/07 02:35:13;;;;;;;16.92;8.95;;;8.20;99.90;;;;;;4960066;29;20070;-91
2023/11/07 02:37:41;;;;;;;21.00;8.95;;;8.30;99.90;;;;;;4975881;29;20049;-90
2023/11/07 02:40:10;;;;;;;18.10;8.02;;;8.20;99.90;;;;;;4959855;29;20039;-91
2023/11/07 02:42:37;;;;;;;18.85;7.85;;;8.30;99.90;;;;;;4975352;28;20043;-91
2023/11/07 02:45:04;;;;;;;13.13;7.85;;;8.50;99.90;;;;;;4975364;29;20043;-90
2023/11/07 02:47:32;;;;;;;18.30;8.30;;;8.30;99.90;;;;;;4975672;29;20036;-91
2023/11/07 02:49:58;;;;;;;21.52;8.73;;;8.40;99.90;;;;;;4975327;29;20043;-91
2023/11/07 02:52:25;;;;;;;18.60;8.02;;;8.30;99.90;;;;;;4975694;28;20122;-91
2023/11/07 02:54:52;;;;;;;15.77;7.28;;;8.30;99.90;;;;;;4975615;29;20082;-92
2023/11/07 02:57:21;;;;;;;13.70;7.00;;;8.40;99.90;;;;;;4974933;29;20031;-91
2023/11/07 02:59:48;;;;;;;20.13;7.28;;;8.40;99.90;;;;;;4975459;29;20040;-92
2023/11/07 03:02:17;;;;;;;14.63;6.75;;;9.00;99.90;;;;;;4967525;29;20094;-90
2023/11/07 03:04:44;;;;;;;15.75;7.47;;;8.50;99.90;;;;;;4967263;29;20043;-91
2023/11/07 03:07:10;;;;;;;11.85;6.88;;;8.40;99.90;;;;;;4961245;29;20035;-92
2023/11/07 03:09:37;;;;;;;11.82;6.57;;;9.10;99.90;;;;;;4967242;29;20118;-91
2023/11/07 03:12:04;;;;;;;14.95;7.22;;;9.00;99.90;;;;;;4973062;29;20062;-92
2023/11/07 03:14:32;;;;;;;16.70;7.40;;;8.50;99.90;;;;;;4974945;29;20043;-92
2023/11/07 03:16:58;;;;;;;15.18;6.90;;;8.50;99.90;;;;;;4959404;29;20039;-91
2023/11/07 03:19:25;;;;;;;23.00;7.13;;;8.50;99.90;;;;;;4959193;29;20046;-91
2023/11/07 03:21:52;;;;;;;12.90;6.63;;;8.50;99.90;;;;;;4975008;29;20043;-92
2023/11/07 03:24:22;;;;;;;14.60;6.72;;;8.50;99.90;;;;;;4959123;29;20477;-91
2023/11/07 03:26:49;;;;;;;13.70;6.68;;;8.40;99.90;;;;;;4975022;29;20047;-92
2023/11/07 03:29:16;;;;;;;11.55;6.38;;;8.70;99.90;;;;;;4974705;29;20078;-92
2023/11/07 03:31:43;;;;;;;13.55;6.15;;;8.50;99.90;;;;;;4958693;29;20054;-92
2023/11/07 03:34:10;;;;;;;13.38;6.00;;;9.10;99.90;;;;;;4959166;29;20043;-92
2023/11/07 03:36:37;;;;;;;19.83;6.97;;;8.50;99.90;;;;;;4975041;29;20077;-92
2023/11/07 03:39:04;;;;;;;14.23;6.32;;;8.50;99.90;;;;;;4975713;29;20044;-90
2023/11/07 03:41:31;;;;;;;13.38;6.30;;;8.50;99.90;;;;;;4959587;29;20482;-92
2023/11/07 03:43:58;;;;;;;13.30;5.70;;;8.40;99.90;;;;;;4974742;29;20093;-93
2023/11/07 03:46:24;;;;;;;12.85;5.45;;;8.80;99.90;;;;;;4959105;29;20070;-91
2023/11/07 03:48:52;;;;;;;14.77;5.65;;;9.00;99.90;;;;;;4959303;29;20043;-92
2023/11/07 03:51:18;;;;;;;13.68;5.22;;;8.40;99.90;;;;;;4974064;29;20153;-92
2023/11/07 03:53:45;;;;;;;14.27;5.88;;;8.40;99.90;;;;;;4965623;29;20414;-93
2023/11/07 03:56:12;;;;;;;14.15;5.38;;;8.30;99.90;;;;;;4974763;29;20062;-92
2023/11/07 03:58:38;;;;;;;17.42;5.22;;;8.30;99.90;;;;;;4958005;29;20498;-93
2023/11/07 04:01:05;;;;;;;11.55;5.05;;;8.20;99.90;;;;;;4975025;29;20039;-92
2023/11/07 04:03:32;;;;;;;8.50;4.88;;;8.30;99.90;;;;;;4958810;29;20043;-92
2023/11/07 04:05:59;;;;;;;9.00;4.70;;;8.20;99.90;;;;;;4974753;29;20142;-91
2023/11/07 04:08:26;;;;;;;11.10;5.00;;;8.20;99.90;;;;;;4958514;28;20047;-90
2023/11/07 04:10:52;;;;;;;9.93;4.50;;;9.00;99.90;;;;;;4974174;29;20446;-91
2023/11/07 04:13:20;;;;;;;12.20;4.50;;;8.20;99.90;;;;;;4958493;29;20520;-92
2023/11/07 04:15:46;;;;;;;11.23;5.63;;;8.20;99.90;;;;;;4974296;29;20047;-92
2023/11/07 04:18:13;;;;;;;13.65;4.70;;;9.10;99.90;;;;;;4958119;29;20039;-92
2023/11/07 04:20:42;;;;;;;13.32;5.15;;;8.80;99.90;;;;;;4974042;29;20133;-92
2023/11/07 04:23:09;;;;;;;15.68;4.68;;;8.90;99.90;;;;;;4974093;29;20039;-93
2023/11/07 04:25:36;;;;;;;11.43;5.15;;;8.20;99.90;;;;;;4958251;29;20461;-92
2023/11/07 04:28:03;;;;;;;13.75;4.97;;;8.50;99.90;;;;;;4957615;29;20158;-91
2023/11/07 04:30:30;;;;;;;8.45;4.90;;;8.20;99.90;;;;;;4957885;29;20457;-93
2023/11/07 04:32:57;;;;;;;10.32;4.90;;;9.00;99.90;;;;;;4973860;29;20035;-93
2023/11/07 04:35:24;;;;;;;8.95;4.47;;;8.60;99.90;;;;;;4973856;29;20079;-93
2023/11/07 04:37:50;;;;;;;12.63;4.20;;;8.60;99.90;;;;;;4973574;29;20130;-93
2023/11/07 04:40:18;;;;;;;12.55;4.80;;;8.10;99.90;;;;;;4973965;29;20494;-91
2023/11/07 04:42:45;;;;;;;13.18;4.75;;;8.30;99.90;;;;;;4957449;28;20047;-91
2023/11/07 04:45:12;;;;;;;12.52;4.47;;;8.00;99.90;;;;;;4974394;29;20642;-93
2023/11/07 04:47:39;;;;;;;18.42;5.13;;;7.50;99.90;;;;;;4957972;29;20118;-93
2023/11/07 04:50:06;;;;;;;9.77;4.15;;;8.40;99.90;;;;;;4958482;29;20035;-92
2023/11/07 04:52:33;;;;;;;10.32;4.45;;;7.90;99.90;;;;;;4960782;29;20039;-91
2023/11/07 04:55:00;;;;;;;11.55;5.25;;;8.30;99.90;;;;;;4967583;29;20182;-92
2023/11/07 04:57:27;;;;;;;11.98;3.95;;;7.90;99.90;;;;;;4957156;29;20042;-92
2023/11/07 04:59:54;;;;;;;10.93;3.88;;;7.80;99.90;;;;;;4973319;29;20043;-93
2023/11/07 05:02:21;;;;;;;9.73;4.35;;;8.50;99.90;;;;;;4973623;29;20093;-92
2023/11/07 05:04:48;;;;;;;10.95;4.45;;;7.80;99.90;;;;;;4958005;29;20852;-93
2023/11/07 05:07:15;;;;;;;13.95;4.60;;;7.90;99.90;;;;;;4959422;29;20078;-91
2023/11/07 05:09:41;;;;;;;10.27;4.20;;;7.80;99.90;;;;;;4960773;29;20039;-92
2023/11/07 05:12:08;;;;;;;9.98;4.18;;;8.60;99.90;;;;;;4977260;29;20059;-92
2023/11/07 05:14:35;;;;;;;10.38;4.07;;;7.80;99.90;;;;;;4977657;29;20039;-92
2023/11/07 05:17:01;;;;;;;10.32;4.15;;;8.40;99.90;;;;;;4978047;29;20523;-92
2023/11/07 05:19:28;;;;;;;11.63;4.10;;;8.40;99.90;;;;;;4962021;29;20513;-92
2023/11/07 05:21:55;;;;;;;11.23;4.25;;;7.70;99.90;;;;;;4961913;29;20067;-91
2023/11/07 05:24:22;;;;;;;17.05;4.43;;;8.40;99.90;;;;;;4976745;29;20043;-91
2023/11/07 05:26:48;;;;;;;12.80;4.57;;;7.70;99.90;;;;;;4961807;29;20038;-92
2023/11/07 05:29:15;;;;;;;16.90;4.38;;;7.90;99.90;;;;;;4962528;29;20039;-92
2023/11/07 05:31:42;;;;;;;9.40;4.00;;;8.00;99.90;;;;;;4976915;29;20039;-91
2023/11/07 05:34:09;;;;;;;10.52;4.30;;;7.70;99.90;;;;;;4977886;29;20047;-91
2023/11/07 05:36:35;;;;;;;11.98;4.25;;;7.70;99.90;;;;;;4976743;29;20039;-91
2023/11/07 05:39:02;;;;;;;12.85;4.68;;;7.60;99.90;;;;;;4957629;29;20046;-91
2023/11/07 05:41:30;;;;;;;11.15;4.40;;;7.60;99.90;;;;;;4975417;29;20043;-93
2023/11/07 05:43:57;;;;;;;12.48;4.47;;;7.70;99.90;;;;;;4977066;29;20043;-92
2023/11/07 05:46:23;;;;;;;11.00;4.22;;;8.60;99.90;;;;;;4977293;29;20051;-93
2023/11/07 05:48:51;;;;;;;12.23;4.20;;;7.60;99.90;;;;;;4961075;29;20127;-91
2023/11/07 05:51:24;;;;;;;12.23;4.30;;;8.30;99.90;;;;;;4976623;29;20047;-93
2023/11/07 05:53:51;;;;;;;12.18;4.72;;;7.60;99.90;;;;;;4960779;29;20062;-92
2023/11/07 05:56:17;;;;;;;12.68;4.70;;;7.60;99.90;;;;;;4969981;29;20039;-92
2023/11/07 05:58:44;;;;;;;14.23;4.53;;;8.30;99.90;;;;;;4976399;29;20062;-91
2023/11/07 06:01:11;;;;;;;13.77;4.95;;;7.60;99.90;;;;;;4961164;29;20039;-92
2023/11/07 06:03:38;;;;;;;10.65;3.90;;;8.50;99.90;;;;;;4960977;29;20071;-92
2023/11/07 06:06:04;;;;;;;13.05;4.13;;;8.10;99.90;;;;;;4960195;29;20055;-90
2023/11/07 06:08:31;;;;;;;13.68;4.30;;;7.50;99.90;;;;;;4960816;29;20039;-93
2023/11/07 06:10:58;;;;;;;12.23;4.82;;;7.70;99.90;;;;;;4976482;29;20099;-92
2023/11/07 06:13:25;;;;;;;11.48;4.25;;;7.50;99.90;;;;;;4960782;29;20498;-92
2023/11/07 06:15:52;;;;;;;12.60;4.80;;;8.20;99.90;;;;;;4967482;29;20054;-91
2023/11/07 06:18:21;;;;;;;11.27;4.88;;;8.30;99.90;;;;;;4965113;29;20502;-92
2023/11/07 06:20:48;;;;;;;13.20;4.30;;;7.60;99.90;;;;;;4975640;29;20039;-92
2023/11/07 06:23:15;;;;;;;16.23;4.47;;;7.50;99.90;;;;;;4960117;29;20178;-92
2023/11/07 06:25:42;;;;;;;14.32;4.63;;;8.00;99.90;;;;;;4975220;29;20094;-92
2023/11/07 06:28:08;;;;;;;12.82;4.47;;;8.40;99.90;;;;;;4975322;29;20478;-92
2023/11/07 06:30:36;;;;;;;11.90;4.43;;;8.20;99.90;;;;;;4976012;29;20401;-92
2023/11/07 06:33:02;;;;;;;9.13;4.30;;;7.80;99.90;;;;;;4975597;28;20051;-92
2023/11/07 06:35:29;;;;;;;15.88;4.47;;;7.50;99.90;;;;;;4960467;29;20054;-93
2023/11/07 06:37:57;;;;;;;11.60;4.32;;;7.50;99.90;;;;;;4975073;29;20497;-93
2023/11/07 06:40:23;;;;;;;13.73;4.53;;;7.50;99.90;;;;;;4971449;29;20046;-92
2023/11/07 06:42:52;;;;;;;12.90;4.75;;;7.50;99.90;;;;;;4959532;29;20039;-91
2023/11/07 06:45:19;;;;;;;13.20;4.47;;;7.50;99.90;;;;;;4975542;29;20038;-91
2023/11/07 06:47:46;;;;;;;11.52;4.20;;;7.50;99.90;;;;;;4960057;29;20039;-91
2023/11/07 06:50:15;;;;;;;10.80;4.30;;;7.30;99.90;;;;;;4959357;29;20039;-92
2023/11/07 06:52:50;;;;;;;11.63;4.40;;;7.40;99.90;;;;;;4958541;29;20502;-92
2023/11/07 06:55:21;;;;;;;9.30;4.18;;;7.50;99.90;;;;;;4958699;29;20085;-93
2023/11/07 06:57:48;;;;;;;12.40;4.60;;;7.50;99.90;;;;;;4975016;29;20109;-92
2023/11/07 07:00:15;;;;;;;11.93;4.90;;;7.30;99.90;;;;;;4975211;29;20139;-90
2023/11/07 07:02:42;;;;;;;10.23;4.40;;;7.40;99.90;;;;;;4959904;29;20066;-92
2023/11/07 07:05:12;;;;;;;9.80;4.63;;;7.40;99.90;;;;;;4975390;29;20043;-92
2023/11/07 07:07:42;;;;;;;13.07;4.70;;;8.10;99.90;;;;;;4975078;29;20046;-92
2023/11/07 07:10:10;;;;;;;13.00;4.78;;;8.30;99.90;;;;;;4975117;28;20078;-90
2023/11/07 07:12:38;;;;;;;12.13;4.80;;;7.40;99.90;;;;;;4974939;29;20497;-91
2023/11/07 07:15:06;;;;;;;13.57;4.85;;;7.70;99.90;;;;;;4975283;29;20043;-90
2023/11/07 07:17:32;;;;;;;10.90;4.80;;;7.40;99.90;;;;;;4959630;29;20035;-93
2023/11/07 07:19:59;;;;;;;10.07;4.45;;;7.40;99.90;;;;;;4960292;29;20094;-93
2023/11/07 07:22:28;;;;;;;15.68;4.57;;;7.40;99.90;;;;;;4975232;28;20039;-92
2023/11/07 07:24:55;;;;;;;12.02;4.22;;;7.40;99.90;;;;;;4991420;29;20077;-92
2023/11/07 07:27:26;;;;;;;13.95;4.50;;;7.40;99.90;;;;;;4974715;29;20074;-93
2023/11/07 07:29:54;;;;;;;13.85;4.60;;;8.00;99.90;;;;;;4975173;29;20031;-93
2023/11/07 07:32:20;;;;;;;13.15;4.78;;;7.40;99.90;;;;;;4958361;29;20454;-92
2023/11/07 07:34:47;;;;;;;12.30;4.80;;;7.40;99.90;;;;;;4971440;29;20050;-90
2023/11/07 07:37:14;;;;;;;11.55;5.03;;;7.70;99.90;;;;;;4974428;29;20092;-93
2023/11/07 07:39:44;;;;;;;14.13;4.53;;;7.60;99.90;;;;;;4984443;29;20130;-93
2023/11/07 07:42:10;;;;;;;18.27;4.70;;;7.40;99.90;;;;;;4959638;28;20046;-92
2023/11/07 07:44:38;;;;;;;11.00;4.63;;;7.70;99.90;;;;;;4974344;29;20035;-93
2023/11/07 07:47:07;;;;;;;11.25;4.68;;;7.40;99.90;;;;;;4974612;29;20043;-92
2023/11/07 07:49:36;;;;;;;10.82;5.03;;;7.90;99.90;;;;;;4976125;29;20047;-93
2023/11/07 07:52:08;;;;;;;13.75;4.72;;;8.30;99.90;;;;;;4975239;29;20039;-91
2023/11/07 07:54:37;;;;;;;10.48;4.53;;;7.60;99.90;;;;;;4975250;29;20057;-91
2023/11/07 07:57:08;;;;;;;12.95;4.85;;;7.70;99.90;;;;;;4959517;29;20046;-91
2023/11/07 07:59:40;;;;;;;11.98;4.97;;;8.00;99.90;;;;;;4967112;29;20039;-92
2023/11/07 08:02:07;;;;;;;13.90;4.82;;;8.40;99.90;;;;;;4958414;29;20055;-89
2023/11/07 08:04:41;;;;;;;13.63;5.05;;;8.70;99.90;;;;;;5140928;27;20402;-92
2023/11/07 08:07:08;;;;;;;11.98;4.80;;;7.80;99.90;;;;;;5141234;28;20098;-90
2023/11/07 08:09:35;;;;;;;8.95;4.55;;;7.90;99.90;;;;;;5125359;28;20377;-90
2023/11/07 08:12:08;;;;;;;10.73;4.53;;;8.50;99.90;;;;;;5142404;28;20423;-90
2023/11/07 08:14:35;;;;;;;11.25;4.13;;;8.00;99.90;;;;;;5109568;28;20043;-90
2023/11/07 08:17:05;;;;;;;10.68;4.43;;;8.10;99.90;;;;;;5133234;28;20036;-91
2023/11/07 08:19:32;;;;;;;11.45;4.05;;;8.20;99.90;;;;;;5142815;28;20072;-91
2023/11/07 08:22:06;;;;;;;12.50;4.43;;;8.50;99.90;;;;;;5143487;28;20546;-91
2023/11/07 08:24:36;;;;;;;12.70;4.68;;;8.20;99.90;;;;;;5130136;28;20047;-92
2023/11/07 08:27:03;;;;;;;13.88;4.60;;;8.60;99.90;;;;;;5143335;28;20040;-90
2023/11/07 08:29:29;;;;;;;11.13;4.65;;;8.10;99.90;;;;;;5101189;28;20049;-91
2023/11/07 08:31:56;;;;;;;7.28;3.92;;;8.00;99.90;;;;;;5109502;28;20415;-91
2023/11/07 08:34:24;;;;;;;9.68;4.57;;;8.90;99.90;;;;;;5142793;28;20036;-92
2023/11/07 08:36:51;;;;;;;12.30;4.32;;;8.00;99.90;;;;;;5095647;28;20044;-91
2023/11/07 08:39:28;;;;;;;14.95;4.70;;;8.80;99.90;;;;;;5105693;28;20041;-90
2023/11/07 08:41:56;;;;;;;10.60;5.03;;;8.90;99.90;;;;;;5107602;28;20127;-90
2023/11/07 08:44:22;;;;;;;14.50;4.63;;;8.20;99.90;;;;;;5128786;28;20047;-90
2023/11/07 08:46:49;;;;;;;12.77;5.15;;;8.80;99.90;;;;;;5142239;28;20369;-90
2023/11/07 08:49:19;;;;;;;10.50;4.43;;;8.40;99.90;;;;;;5139280;28;20044;-90
2023/11/07 08:51:51;;;;;;;9.68;4.20;;;8.40;99.90;;;;;;5098390;28;20123;-89
2023/11/07 08:54:18;;;;;;;12.55;5.10;;;9.50;99.90;;;;;;5142062;28;20041;-89
2023/11/07 08:56:49;;;;;;;11.40;4.43;;;8.50;99.90;;;;;;5104065;28;20032;-86
2023/11/07 08:59:15;;;;;;;10.32;5.30;;;8.90;99.90;;;;;;5128548;28;20037;-88
2023/11/07 09:01:42;;;;;;;10.52;4.55;;;9.40;99.90;;;;;;5102301;28;20045;-90
2023/11/07 09:04:09;;;;;;;14.27;4.82;;;8.80;99.90;;;;;;5084445;28;20084;-92
2023/11/07 09:06:39;;;;;;;13.40;4.60;;;8.70;99.90;;;;;;5119793;28;20051;-92
2023/11/07 09:09:07;;;;;;;14.38;5.05;;;9.00;99.90;;;;;;5122168;28;20039;-91
2023/11/07 09:11:34;;;;;;;9.13;4.53;;;8.80;99.90;;;;;;5087591;28;20037;-91
2023/11/07 09:14:05;;;;;;;11.57;4.07;;;9.00;99.90;;;;;;5085746;28;20044;-90
2023/11/07 09:16:32;;;;;;;14.05;4.93;;;9.50;99.90;;;;;;5073582;28;20284;-90
2023/11/07 09:18:58;;;;;;;9.20;4.45;;;9.10;99.90;;;;;;5073958;28;20513;-91
2023/11/07 09:21:26;;;;;;;11.07;5.03;;;9.10;99.90;;;;;;5066327;28;20045;-89
2023/11/07 09:23:53;;;;;;;8.07;4.65;;;9.10;99.90;;;;;;5092818;28;20069;-94
2023/11/07 09:26:20;;;;;;;7.85;4.22;;;9.20;99.90;;;;;;5074372;28;20032;-93
2023/11/07 09:28:46;;;;;;;10.27;4.80;;;9.40;99.90;;;;;;5074200;28;20037;-92
2023/11/07 09:31:13;;;;;;;11.13;4.55;;;10.00;99.90;;;;;;5069306;28;20125;-91
2023/11/07 09:33:40;;;;;;;14.13;5.20;;;9.40;99.90;;;;;;5094705;28;20033;-89
2023/11/07 09:36:09;;;;;;;12.55;4.60;;;9.50;99.90;;;;;;5074335;28;20045;-90
2023/11/07 09:38:37;;;;;;;15.45;5.30;;;9.50;99.90;;;;;;5090100;28;20037;-91
2023/11/07 09:41:04;;;;;;;10.65;5.03;;;9.60;99.90;;;;;;5061645;28;20602;-94
2023/11/07 09:43:32;;;;;;;9.85;4.15;;;9.50;99.90;;;;;;5074695;28;20036;-93
2023/11/07 09:46:01;;;;;;;14.60;4.47;;;10.30;99.90;;;;;;5066942;28;20040;-84
2023/11/07 09:48:28;;;;;;;7.47;4.50;;;9.90;99.90;;;;;;5102206;28;20130;-91
2023/11/07 09:50:57;;;;;;;10.55;4.78;;;9.70;99.90;;;;;;5067355;28;20034;-92
2023/11/07 09:53:24;;;;;;;8.68;4.05;;;9.60;99.90;;;;;;5069908;28;20490;-92
2023/11/07 09:55:54;;;;;;;9.63;4.18;;;9.70;99.90;;;;;;5069370;28;20041;-91
2023/11/07 09:58:25;;;;;;;10.35;4.57;;;10.40;99.90;;;;;;5099567;28;20072;-91
2023/11/07 10:00:53;;;;;;;8.70;4.25;;;10.60;99.90;;;;;;5074457;28;20048;-90
2023/11/07 10:03:20;;;;;;;8.40;4.30;;;10.90;99.90;;;;;;5088929;28;20052;-91
2023/11/07 10:05:48;;;;;;;11.40;5.32;;;10.00;99.90;;;;;;5069212;28;20041;-90
2023/11/07 10:08:17;;;;;;;10.30;4.60;;;10.00;99.90;;;;;;5069891;28;20072;-89
2023/11/07 10:11:07;;;;;;;10.70;5.05;;;10.10;99.90;;;;;;5070008;28;20080;-92
2023/11/07 10:13:34;;;;;;;7.88;4.50;;;10.00;99.90;;;;;;5103022;28;20049;-87
2023/11/07 10:16:08;;;;;;;8.98;4.75;;;10.40;99.90;;;;;;5097358;28;20087;-89
2023/11/07 10:18:48;;;;;;;8.75;5.13;;;10.20;99.90;;;;;;5066629;28;20120;-92
2023/11/07 10:21:16;;;;;;;9.93;5.47;;;10.10;99.90;;;;;;5074062;28;20747;-89
2023/11/07 10:23:43;;;;;;;10.50;5.47;;;10.10;99.90;;;;;;5099882;28;20129;-84
2023/11/07 10:26:13;;;;;;;10.50;5.85;;;10.10;99.90;;;;;;5077661;28;20516;-86
2023/11/07 10:28:40;;;;;;;9.30;5.18;;;10.10;99.90;;;;;;5071869;28;20041;-86
2023/11/07 10:31:20;;;;;;;9.80;5.20;;;10.40;99.90;;;;;;5115181;28;20064;-87
2023/11/07 10:33:47;;;;;;;10.63;5.43;;;10.20;99.90;;;;;;5085342;28;20128;-86
2023/11/07 10:36:13;;;;;;;10.77;5.45;;;10.10;99.90;;;;;;5069325;28;20504;-87
2023/11/07 10:38:40;;;;;;;9.90;5.68;;;10.10;99.90;;;;;;5112940;28;20053;-86
2023/11/07 10:41:08;;;;;;;11.88;5.55;;;10.10;99.90;;;;;;5097339;28;20040;-86
2023/11/07 10:43:39;;;;;;;14.68;5.80;;;10.50;99.90;;;;;;5067625;28;20045;-85
2023/11/07 10:46:11;;;;;;;9.73;5.38;;;10.00;99.90;;;;;;5070707;28;20665;-85
2023/11/07 10:48:41;;;;;;;11.23;5.63;;;10.00;99.90;;;;;;5103936;28;20048;-86
2023/11/07 10:51:11;;;;;;;10.38;5.07;;;10.00;99.90;;;;;;5070760;28;20852;-86
2023/11/07 10:53:41;;;;;;;14.65;5.68;;;10.40;99.90;;;;;;5067274;28;20045;-86
2023/11/07 10:56:20;;;;;;;9.60;5.22;;;10.20;99.90;;;;;;5084143;28;20037;-86
2023/11/07 10:58:58;;;;;;;9.40;4.85;;;10.20;99.90;;;;;;5084021;28;20482;-86
2023/11/07 11:01:27;;;;;;;9.88;5.10;;;10.20;99.90;;;;;;5095703;28;20043;-86
2023/11/07 11:03:54;;;;;;;11.45;5.53;;;10.20;99.90;;;;;;5084100;28;20049;-85
2023/11/07 11:06:23;;;;;;;9.30;5.03;;;10.20;99.90;;;;;;5078586;28;20037;-86
2023/11/07 11:09:00;;;;;;;12.80;5.78;;;10.20;99.90;;;;;;5084714;28;20125;-85
2023/11/07 11:11:30;;;;;;;11.95;5.35;;;10.20;99.90;;;;;;5115447;28;20059;-86
2023/11/07 11:13:58;;;;;;;12.88;5.40;;;9.60;99.90;;;;;;5101038;28;20041;-85
2023/11/07 11:16:26;;;;;;;7.40;4.95;;;10.20;99.90;;;;;;5082303;28;20033;-86
2023/11/07 11:19:27;;;;;;;11.93;5.63;;;10.20;99.90;;;;;;5070418;28;20504;-85
2023/11/07 11:22:03;;;;;;;9.20;5.40;;;10.20;99.90;;;;;;5070314;28;20424;-85
2023/11/07 11:24:48;;;;;;;9.40;5.15;;;10.30;99.90;;;;;;5103363;28;20056;-86
2023/11/07 11:27:23;;;;;;;8.02;4.57;;;10.40;99.90;;;;;;5059195;28;20701;-85
2023/11/07 11:29:50;;;;;;;12.57;5.35;;;10.50;99.90;;;;;;5103233;28;20037;-85
2023/11/07 11:32:26;;;;;;;9.05;4.90;;;11.10;99.90;;;;;;5068264;28;20374;-90
2023/11/07 11:35:19;;;;;;;7.80;4.95;;;10.70;99.90;;;;;;5084521;28;20044;-91
2023/11/07 11:38:21;;;;;;;9.60;4.57;;;10.70;99.90;;;;;;5086415;28;20044;-87
2023/11/07 11:40:59;;;;;;;8.02;4.50;;;10.70;99.90;;;;;;5113378;28;20041;-88
2023/11/07 11:43:34;;;;;;;7.63;4.22;;;10.80;99.90;;;;;;5073860;28;20459;-90
2023/11/07 11:46:16;;;;;;;8.48;4.47;;;10.70;99.90;;;;;;5087396;28;20552;-87
2023/11/07 11:48:55;;;;;;;8.50;4.53;;;11.10;99.90;;;;;;5100076;28;20080;-87
2023/11/07 11:51:37;;;;;;;9.75;4.07;;;10.80;99.90;;;;;;5069647;28;20048;-88
2023/11/07 11:54:06;;;;;;;10.95;4.20;;;10.70;99.90;;;;;;5116327;28;20070;-87
2023/11/07 11:56:38;;;;;;;8.90;4.20;;;10.60;99.90;;;;;;5069793;28;20049;-87
2023/11/07 11:59:11;;;;;;;9.30;4.63;;;10.60;99.90;;;;;;5062688;28;20049;-86
2023/11/07 12:01:56;;;;;;;10.23;4.30;;;10.60;99.90;;;;;;5075126;28;20041;-86
2023/11/07 12:04:29;;;;;;;10.63;4.50;;;10.60;99.90;;;;;;5057433;28;20053;-85
2023/11/07 12:07:14;;;;;;;8.48;4.20;;;10.60;99.90;;;;;;5106786;28;20048;-87
2023/11/07 12:09:47;;;;;;;10.02;4.78;;;10.60;99.90;;;;;;5115394;28;20044;-87
2023/11/07 12:12:15;;;;;;;8.48;4.22;;;10.60;99.90;;;;;;5066687;28;20037;-86
2023/11/07 12:14:58;;;;;;;12.93;4.60;;;10.50;99.90;;;;;;5051261;28;20072;-86
2023/11/07 12:17:28;;;;;;;8.70;4.15;;;10.60;99.90;;;;;;5110002;28;20474;-85
2023/11/07 12:20:07;;;;;;;7.18;4.30;;;10.40;99.90;;;;;;5065472;28;20046;-86
2023/11/07 12:22:34;;;;;;;9.82;4.88;;;10.40;99.90;;;;;;5101039;28;20497;-86
2023/11/07 12:25:13;;;;;;;11.52;4.88;;;10.50;99.90;;;;;;5057326;28;20099;-86
2023/11/07 12:27:45;;;;;;;9.05;4.97;;;10.50;99.90;;;;;;5091038;28;20116;-86
2023/11/07 12:30:18;;;;;;;9.10;4.82;;;10.50;99.90;;;;;;5100590;28;20087;-86
2023/11/07 12:32:45;;;;;;;7.38;4.15;;;10.50;99.90;;;;;;5075723;28;20045;-86
2023/11/07 12:35:20;;;;;;;7.22;4.30;;;10.50;99.90;;;;;;5073148;28;20055;-88
2023/11/07 12:37:48;;;;;;;6.97;4.87;;;10.50;99.90;;;;;;5067442;28;20099;-89
2023/11/07 12:40:16;;;;;;;10.30;4.65;;;10.50;99.90;;;;;;5070332;28;20068;-88
2023/11/07 12:42:53;;;;;;;8.02;4.28;;;10.40;99.90;;;;;;5069726;28;20056;-88
2023/11/07 12:45:28;;;;;;;7.70;4.43;;;10.50;99.90;;;;;;5069919;28;20174;-88
2023/11/07 12:48:00;;;;;;;8.27;4.65;;;10.40;99.90;;;;;;5070838;28;20535;-88
2023/11/07 12:50:42;;;;;;;7.68;4.18;;;10.40;99.90;;;;;;5063836;28;20045;-88
2023/11/07 12:53:09;;;;;;;10.15;4.50;;;10.40;99.90;;;;;;5091823;28;20041;-88
2023/11/07 12:55:37;;;;;;;7.18;4.30;;;10.80;99.90;;;;;;5070917;28;20512;-87